Brewer, Arkansas
Current Conditions -  °F | °C
As of 2:55 PM on Sunday 23 Nov 2014 (Local Time) from KCCA Reporting Station
Haze Haze  
Wind Chill: 59°   Ceiling: 600
Heat Index: 59°   Visibility: 3mi
Dew Point: 59°   Wind: 3mph
Humidity: 100%   Direction: 180°S
Pressure: 29.36"   Gusts: NA
Location:  35.659°N, 92.1866°W
Report Text: KCCA 232055Z AUTO 18003KT 3SM BR OVC006 15/15 A2936 RMK AO2
Loading
Personal Weather Stations






























Interactive Weather Map New forecast layout! Learn more

10-Day Weather Forecast

Advertisements
Track Severe Weather on mobile